<?xml version="1.0" encoding="UTF-8" standalone="no" ?>
<gpx xmlns="http://www.topografix.com/GPX/1/1" xmlns:xsi="http://www.w3.org/2001/XMLSchema-instance" xsi:schemaLocation="http://www.topografix.com/GPX/1/1 http://www.topografix.com/GPX/1/1/gpx.xsd" version="1.1" creator="VisuGPX - https://www.visugpx.com">
  <metadata>
    <name>Cognin les gorges (38)-Cascade de Gerlette</name>
  </metadata>
  <trk>
    <name><![CDATA[9793430-Gerlette]]></name>
    <trkseg>
      <trkpt lat="45.17044" lon="5.41232">
        <ele>278</ele>
        <time>2020-07-16T15:26:08Z</time>
      </trkpt>
      <trkpt lat="45.17026" lon="5.41188">
        <ele>277</ele>
        <time>2020-07-16T15:26:56Z</time>
      </trkpt>
      <trkpt lat="45.16985" lon="5.41235">
        <ele>278</ele>
        <time>2020-07-16T15:28:06Z</time>
      </trkpt>
      <trkpt lat="45.16957" lon="5.4129">
        <ele>280</ele>
        <time>2020-07-16T15:29:10Z</time>
      </trkpt>
      <trkpt lat="45.16941" lon="5.41349">
        <ele>284</ele>
        <time>2020-07-16T15:30:10Z</time>
      </trkpt>
      <trkpt lat="45.16923" lon="5.41401">
        <ele>288</ele>
        <time>2020-07-16T15:31:04Z</time>
      </trkpt>
      <trkpt lat="45.16905" lon="5.41426">
        <ele>290</ele>
        <time>2020-07-16T15:31:38Z</time>
      </trkpt>
      <trkpt lat="45.16873" lon="5.41399">
        <ele>289</ele>
        <time>2020-07-16T15:32:27Z</time>
      </trkpt>
      <trkpt lat="45.16857" lon="5.41457">
        <ele>296</ele>
        <time>2020-07-16T15:33:26Z</time>
      </trkpt>
      <trkpt lat="45.16798" lon="5.41547">
        <ele>342</ele>
        <time>2020-07-16T15:35:22Z</time>
      </trkpt>
      <trkpt lat="45.16801" lon="5.41589">
        <ele>348</ele>
        <time>2020-07-16T15:36:01Z</time>
      </trkpt>
      <trkpt lat="45.16767" lon="5.41686">
        <ele>357</ele>
        <time>2020-07-16T15:37:43Z</time>
      </trkpt>
      <trkpt lat="45.16732" lon="5.41667">
        <ele>380</ele>
        <time>2020-07-16T15:38:33Z</time>
      </trkpt>
      <trkpt lat="45.16763" lon="5.41698">
        <ele>360</ele>
        <time>2020-07-16T15:39:24Z</time>
      </trkpt>
      <trkpt lat="45.16755" lon="5.41754">
        <ele>371</ele>
        <time>2020-07-16T15:40:18Z</time>
      </trkpt>
      <trkpt lat="45.16793" lon="5.41833">
        <ele>407</ele>
        <time>2020-07-16T15:41:48Z</time>
      </trkpt>
      <trkpt lat="45.16793" lon="5.41917">
        <ele>443</ele>
        <time>2020-07-16T15:43:07Z</time>
      </trkpt>
      <trkpt lat="45.16773" lon="5.41972">
        <ele>468</ele>
        <time>2020-07-16T15:44:05Z</time>
      </trkpt>
      <trkpt lat="45.16733" lon="5.42022">
        <ele>501</ele>
        <time>2020-07-16T15:45:16Z</time>
      </trkpt>
      <trkpt lat="45.16705" lon="5.42051">
        <ele>526</ele>
        <time>2020-07-16T15:46:02Z</time>
      </trkpt>
      <trkpt lat="45.16675" lon="5.42079">
        <ele>549</ele>
        <time>2020-07-16T15:46:50Z</time>
      </trkpt>
      <trkpt lat="45.16666" lon="5.42092">
        <ele>558</ele>
        <time>2020-07-16T15:47:07Z</time>
      </trkpt>
      <trkpt lat="45.16639" lon="5.42061">
        <ele>566</ele>
        <time>2020-07-16T15:47:54Z</time>
      </trkpt>
      <trkpt lat="45.16668" lon="5.42039">
        <ele>533</ele>
        <time>2020-07-16T15:48:38Z</time>
      </trkpt>
      <trkpt lat="45.16649" lon="5.42072">
        <ele>563</ele>
        <time>2020-07-16T15:49:18Z</time>
      </trkpt>
      <trkpt lat="45.16658" lon="5.42099">
        <ele>566</ele>
        <time>2020-07-16T15:49:46Z</time>
      </trkpt>
      <trkpt lat="45.16641" lon="5.42128">
        <ele>587</ele>
        <time>2020-07-16T15:50:21Z</time>
      </trkpt>
      <trkpt lat="45.16613" lon="5.42172">
        <ele>611</ele>
        <time>2020-07-16T15:51:17Z</time>
      </trkpt>
      <trkpt lat="45.16601" lon="5.42221">
        <ele>616</ele>
        <time>2020-07-16T15:52:06Z</time>
      </trkpt>
      <trkpt lat="45.16572" lon="5.4226">
        <ele>623</ele>
        <time>2020-07-16T15:52:59Z</time>
      </trkpt>
      <trkpt lat="45.16588" lon="5.42285">
        <ele>624</ele>
        <time>2020-07-16T15:53:31Z</time>
      </trkpt>
      <trkpt lat="45.16545" lon="5.42335">
        <ele>640</ele>
        <time>2020-07-16T15:54:45Z</time>
      </trkpt>
      <trkpt lat="45.16512" lon="5.42386">
        <ele>644</ele>
        <time>2020-07-16T15:55:50Z</time>
      </trkpt>
      <trkpt lat="45.16538" lon="5.42386">
        <ele>647</ele>
        <time>2020-07-16T15:56:25Z</time>
      </trkpt>
      <trkpt lat="45.16505" lon="5.42425">
        <ele>643</ele>
        <time>2020-07-16T15:57:22Z</time>
      </trkpt>
      <trkpt lat="45.16466" lon="5.42479">
        <ele>656</ele>
        <time>2020-07-16T15:58:35Z</time>
      </trkpt>
      <trkpt lat="45.16426" lon="5.42542">
        <ele>663</ele>
        <time>2020-07-16T15:59:55Z</time>
      </trkpt>
      <trkpt lat="45.16401" lon="5.42621">
        <ele>667</ele>
        <time>2020-07-16T16:01:16Z</time>
      </trkpt>
      <trkpt lat="45.16363" lon="5.42758">
        <ele>679</ele>
        <time>2020-07-16T16:03:35Z</time>
      </trkpt>
      <trkpt lat="45.163" lon="5.42893">
        <ele>695</ele>
        <time>2020-07-16T16:06:07Z</time>
      </trkpt>
      <trkpt lat="45.16235" lon="5.43036">
        <ele>706</ele>
        <time>2020-07-16T16:08:47Z</time>
      </trkpt>
      <trkpt lat="45.1618" lon="5.43151">
        <ele>711</ele>
        <time>2020-07-16T16:10:58Z</time>
      </trkpt>
      <trkpt lat="45.16113" lon="5.43294">
        <ele>730</ele>
        <time>2020-07-16T16:13:39Z</time>
      </trkpt>
      <trkpt lat="45.16045" lon="5.43424">
        <ele>759</ele>
        <time>2020-07-16T16:16:12Z</time>
      </trkpt>
      <trkpt lat="45.16021" lon="5.43451">
        <ele>761</ele>
        <time>2020-07-16T16:16:53Z</time>
      </trkpt>
      <trkpt lat="45.15972" lon="5.43508">
        <ele>753</ele>
        <time>2020-07-16T16:18:17Z</time>
      </trkpt>
      <trkpt lat="45.15913" lon="5.4359">
        <ele>696</ele>
        <time>2020-07-16T16:20:07Z</time>
      </trkpt>
      <trkpt lat="45.15839" lon="5.43619">
        <ele>682</ele>
        <time>2020-07-16T16:21:50Z</time>
      </trkpt>
      <trkpt lat="45.15788" lon="5.43633">
        <ele>692</ele>
        <time>2020-07-16T16:22:59Z</time>
      </trkpt>
      <trkpt lat="45.1575" lon="5.43646">
        <ele>696</ele>
        <time>2020-07-16T16:23:51Z</time>
      </trkpt>
      <trkpt lat="45.1574" lon="5.43707">
        <ele>702</ele>
        <time>2020-07-16T16:24:50Z</time>
      </trkpt>
      <trkpt lat="45.15683" lon="5.43694">
        <ele>708</ele>
        <time>2020-07-16T16:26:07Z</time>
      </trkpt>
      <trkpt lat="45.15618" lon="5.43696">
        <ele>688</ele>
        <time>2020-07-16T16:27:34Z</time>
      </trkpt>
      <trkpt lat="45.15634" lon="5.43822">
        <ele>692</ele>
        <time>2020-07-16T16:29:35Z</time>
      </trkpt>
      <trkpt lat="45.15637" lon="5.43911">
        <ele>686</ele>
        <time>2020-07-16T16:30:58Z</time>
      </trkpt>
      <trkpt lat="45.15618" lon="5.43963">
        <ele>689</ele>
        <time>2020-07-16T16:31:54Z</time>
      </trkpt>
      <trkpt lat="45.1559" lon="5.43992">
        <ele>692</ele>
        <time>2020-07-16T16:32:40Z</time>
      </trkpt>
      <trkpt lat="45.15585" lon="5.44021">
        <ele>697</ele>
        <time>2020-07-16T16:33:08Z</time>
      </trkpt>
      <trkpt lat="45.15581" lon="5.44079">
        <ele>709</ele>
        <time>2020-07-16T16:34:03Z</time>
      </trkpt>
      <trkpt lat="45.15597" lon="5.44149">
        <ele>714</ele>
        <time>2020-07-16T16:35:12Z</time>
      </trkpt>
      <trkpt lat="45.15622" lon="5.44192">
        <ele>716</ele>
        <time>2020-07-16T16:36:04Z</time>
      </trkpt>
      <trkpt lat="45.1561" lon="5.44214">
        <ele>716</ele>
        <time>2020-07-16T16:36:31Z</time>
      </trkpt>
      <trkpt lat="45.15573" lon="5.44187">
        <ele>722</ele>
        <time>2020-07-16T16:37:26Z</time>
      </trkpt>
      <trkpt lat="45.15529" lon="5.44127">
        <ele>741</ele>
        <time>2020-07-16T16:38:48Z</time>
      </trkpt>
      <trkpt lat="45.15499" lon="5.44115">
        <ele>755</ele>
        <time>2020-07-16T16:39:29Z</time>
      </trkpt>
      <trkpt lat="45.15478" lon="5.44149">
        <ele>771</ele>
        <time>2020-07-16T16:40:12Z</time>
      </trkpt>
      <trkpt lat="45.15457" lon="5.44201">
        <ele>787</ele>
        <time>2020-07-16T16:41:08Z</time>
      </trkpt>
      <trkpt lat="45.15437" lon="5.44237">
        <ele>800</ele>
        <time>2020-07-16T16:41:51Z</time>
      </trkpt>
      <trkpt lat="45.15417" lon="5.44263">
        <ele>815</ele>
        <time>2020-07-16T16:42:27Z</time>
      </trkpt>
      <trkpt lat="45.15389" lon="5.44246">
        <ele>821</ele>
        <time>2020-07-16T16:43:08Z</time>
      </trkpt>
      <trkpt lat="45.15359" lon="5.4421">
        <ele>828</ele>
        <time>2020-07-16T16:44:01Z</time>
      </trkpt>
      <trkpt lat="45.15317" lon="5.4418">
        <ele>838</ele>
        <time>2020-07-16T16:45:03Z</time>
      </trkpt>
      <trkpt lat="45.15267" lon="5.44174">
        <ele>851</ele>
        <time>2020-07-16T16:46:10Z</time>
      </trkpt>
      <trkpt lat="45.15251" lon="5.44172">
        <ele>855</ele>
        <time>2020-07-16T16:46:32Z</time>
      </trkpt>
      <trkpt lat="45.15306" lon="5.44234">
        <ele>848</ele>
        <time>2020-07-16T16:48:05Z</time>
      </trkpt>
      <trkpt lat="45.15309" lon="5.44295">
        <ele>855</ele>
        <time>2020-07-16T16:49:03Z</time>
      </trkpt>
      <trkpt lat="45.15326" lon="5.44405">
        <ele>858</ele>
        <time>2020-07-16T16:50:49Z</time>
      </trkpt>
      <trkpt lat="45.15315" lon="5.44439">
        <ele>863</ele>
        <time>2020-07-16T16:51:24Z</time>
      </trkpt>
      <trkpt lat="45.15263" lon="5.44494">
        <ele>879</ele>
        <time>2020-07-16T16:52:51Z</time>
      </trkpt>
      <trkpt lat="45.15258" lon="5.44524">
        <ele>885</ele>
        <time>2020-07-16T16:53:20Z</time>
      </trkpt>
      <trkpt lat="45.15317" lon="5.44512">
        <ele>865</ele>
        <time>2020-07-16T16:54:39Z</time>
      </trkpt>
      <trkpt lat="45.15376" lon="5.44517">
        <ele>849</ele>
        <time>2020-07-16T16:55:58Z</time>
      </trkpt>
      <trkpt lat="45.15412" lon="5.44577">
        <ele>847</ele>
        <time>2020-07-16T16:57:12Z</time>
      </trkpt>
      <trkpt lat="45.15422" lon="5.44683">
        <ele>860</ele>
        <time>2020-07-16T16:58:53Z</time>
      </trkpt>
      <trkpt lat="45.15399" lon="5.44786">
        <ele>896</ele>
        <time>2020-07-16T17:00:35Z</time>
      </trkpt>
      <trkpt lat="45.15459" lon="5.44793">
        <ele>862</ele>
        <time>2020-07-16T17:01:55Z</time>
      </trkpt>
      <trkpt lat="45.15508" lon="5.44768">
        <ele>830</ele>
        <time>2020-07-16T17:03:04Z</time>
      </trkpt>
      <trkpt lat="45.15559" lon="5.44813">
        <ele>819</ele>
        <time>2020-07-16T17:04:25Z</time>
      </trkpt>
      <trkpt lat="45.15563" lon="5.44898">
        <ele>833</ele>
        <time>2020-07-16T17:05:45Z</time>
      </trkpt>
      <trkpt lat="45.15576" lon="5.45053">
        <ele>847</ele>
        <time>2020-07-16T17:08:12Z</time>
      </trkpt>
      <trkpt lat="45.15595" lon="5.45181">
        <ele>861</ele>
        <time>2020-07-16T17:10:15Z</time>
      </trkpt>
      <trkpt lat="45.1561" lon="5.45259">
        <ele>873</ele>
        <time>2020-07-16T17:11:31Z</time>
      </trkpt>
      <trkpt lat="45.15623" lon="5.45342">
        <ele>878</ele>
        <time>2020-07-16T17:12:51Z</time>
      </trkpt>
      <trkpt lat="45.15622" lon="5.45387">
        <ele>890</ele>
        <time>2020-07-16T17:13:33Z</time>
      </trkpt>
      <trkpt lat="45.15605" lon="5.45464">
        <ele>911</ele>
        <time>2020-07-16T17:14:49Z</time>
      </trkpt>
      <trkpt lat="45.15594" lon="5.45524">
        <ele>929</ele>
        <time>2020-07-16T17:15:47Z</time>
      </trkpt>
      <trkpt lat="45.15585" lon="5.45583">
        <ele>950</ele>
        <time>2020-07-16T17:16:44Z</time>
      </trkpt>
      <trkpt lat="45.15562" lon="5.45591">
        <ele>969</ele>
        <time>2020-07-16T17:17:16Z</time>
      </trkpt>
      <trkpt lat="45.15552" lon="5.45638">
        <ele>998</ele>
        <time>2020-07-16T17:18:02Z</time>
      </trkpt>
      <trkpt lat="45.15529" lon="5.45677">
        <ele>1018</ele>
        <time>2020-07-16T17:18:50Z</time>
      </trkpt>
      <trkpt lat="45.15526" lon="5.4563">
        <ele>1006</ele>
        <time>2020-07-16T17:19:34Z</time>
      </trkpt>
      <trkpt lat="45.1551" lon="5.4558">
        <ele>1004</ele>
        <time>2020-07-16T17:20:26Z</time>
      </trkpt>
      <trkpt lat="45.15505" lon="5.45491">
        <ele>994</ele>
        <time>2020-07-16T17:21:50Z</time>
      </trkpt>
      <trkpt lat="45.15499" lon="5.45428">
        <ele>982</ele>
        <time>2020-07-16T17:22:50Z</time>
      </trkpt>
      <trkpt lat="45.15474" lon="5.45358">
        <ele>977</ele>
        <time>2020-07-16T17:24:04Z</time>
      </trkpt>
      <trkpt lat="45.15455" lon="5.45313">
        <ele>980</ele>
        <time>2020-07-16T17:24:53Z</time>
      </trkpt>
      <trkpt lat="45.15429" lon="5.45275">
        <ele>994</ele>
        <time>2020-07-16T17:25:43Z</time>
      </trkpt>
      <trkpt lat="45.1539" lon="5.45233">
        <ele>1003</ele>
        <time>2020-07-16T17:26:48Z</time>
      </trkpt>
      <trkpt lat="45.15381" lon="5.45275">
        <ele>1015</ele>
        <time>2020-07-16T17:27:30Z</time>
      </trkpt>
      <trkpt lat="45.15362" lon="5.45367">
        <ele>1045</ele>
        <time>2020-07-16T17:29:00Z</time>
      </trkpt>
      <trkpt lat="45.15431" lon="5.45434">
        <ele>1034</ele>
        <time>2020-07-16T17:30:51Z</time>
      </trkpt>
      <trkpt lat="45.15463" lon="5.45553">
        <ele>1037</ele>
        <time>2020-07-16T17:32:51Z</time>
      </trkpt>
      <trkpt lat="45.15502" lon="5.45677">
        <ele>1024</ele>
        <time>2020-07-16T17:34:59Z</time>
      </trkpt>
      <trkpt lat="45.15506" lon="5.45787">
        <ele>1034</ele>
        <time>2020-07-16T17:36:43Z</time>
      </trkpt>
      <trkpt lat="45.15552" lon="5.45796">
        <ele>1042</ele>
        <time>2020-07-16T17:37:45Z</time>
      </trkpt>
      <trkpt lat="45.15619" lon="5.45715">
        <ele>1035</ele>
        <time>2020-07-16T17:39:42Z</time>
      </trkpt>
      <trkpt lat="45.15688" lon="5.45578">
        <ele>1003</ele>
        <time>2020-07-16T17:42:20Z</time>
      </trkpt>
      <trkpt lat="45.15781" lon="5.45571">
        <ele>1044</ele>
        <time>2020-07-16T17:44:25Z</time>
      </trkpt>
      <trkpt lat="45.15871" lon="5.45618">
        <ele>1061</ele>
        <time>2020-07-16T17:46:33Z</time>
      </trkpt>
      <trkpt lat="45.1596" lon="5.45656">
        <ele>1064</ele>
        <time>2020-07-16T17:48:37Z</time>
      </trkpt>
      <trkpt lat="45.16026" lon="5.45713">
        <ele>1078</ele>
        <time>2020-07-16T17:50:20Z</time>
      </trkpt>
      <trkpt lat="45.16041" lon="5.45643">
        <ele>1070</ele>
        <time>2020-07-16T17:51:29Z</time>
      </trkpt>
      <trkpt lat="45.16029" lon="5.45524">
        <ele>1075</ele>
        <time>2020-07-16T17:53:22Z</time>
      </trkpt>
      <trkpt lat="45.15998" lon="5.45472">
        <ele>1072</ele>
        <time>2020-07-16T17:54:26Z</time>
      </trkpt>
      <trkpt lat="45.16058" lon="5.45454">
        <ele>1104</ele>
        <time>2020-07-16T17:55:48Z</time>
      </trkpt>
      <trkpt lat="45.16123" lon="5.45585">
        <ele>1113</ele>
        <time>2020-07-16T17:58:19Z</time>
      </trkpt>
      <trkpt lat="45.16127" lon="5.4552">
        <ele>1128</ele>
        <time>2020-07-16T17:59:20Z</time>
      </trkpt>
      <trkpt lat="45.16082" lon="5.45421">
        <ele>1122</ele>
        <time>2020-07-16T18:01:11Z</time>
      </trkpt>
      <trkpt lat="45.16038" lon="5.4536">
        <ele>1110</ele>
        <time>2020-07-16T18:02:33Z</time>
      </trkpt>
      <trkpt lat="45.16052" lon="5.45291">
        <ele>1107</ele>
        <time>2020-07-16T18:03:40Z</time>
      </trkpt>
      <trkpt lat="45.1612" lon="5.45215">
        <ele>1100</ele>
        <time>2020-07-16T18:05:36Z</time>
      </trkpt>
      <trkpt lat="45.16352" lon="5.45138">
        <ele>1101</ele>
        <time>2020-07-16T18:10:54Z</time>
      </trkpt>
      <trkpt lat="45.16525" lon="5.45096">
        <ele>1087</ele>
        <time>2020-07-16T18:14:48Z</time>
      </trkpt>
      <trkpt lat="45.16679" lon="5.45053">
        <ele>1054</ele>
        <time>2020-07-16T18:18:18Z</time>
      </trkpt>
      <trkpt lat="45.16768" lon="5.4508">
        <ele>1046</ele>
        <time>2020-07-16T18:20:19Z</time>
      </trkpt>
      <trkpt lat="45.16844" lon="5.45123">
        <ele>1035</ele>
        <time>2020-07-16T18:22:08Z</time>
      </trkpt>
      <trkpt lat="45.16816" lon="5.4499">
        <ele>1010</ele>
        <time>2020-07-16T18:24:19Z</time>
      </trkpt>
      <trkpt lat="45.16835" lon="5.44874">
        <ele>988</ele>
        <time>2020-07-16T18:26:11Z</time>
      </trkpt>
      <trkpt lat="45.16872" lon="5.44707">
        <ele>966</ele>
        <time>2020-07-16T18:28:56Z</time>
      </trkpt>
      <trkpt lat="45.16915" lon="5.4475">
        <ele>969</ele>
        <time>2020-07-16T18:30:06Z</time>
      </trkpt>
      <trkpt lat="45.17007" lon="5.44847">
        <ele>977</ele>
        <time>2020-07-16T18:32:39Z</time>
      </trkpt>
      <trkpt lat="45.17144" lon="5.44896">
        <ele>965</ele>
        <time>2020-07-16T18:35:47Z</time>
      </trkpt>
      <trkpt lat="45.17211" lon="5.44867">
        <ele>963</ele>
        <time>2020-07-16T18:37:21Z</time>
      </trkpt>
      <trkpt lat="45.17222" lon="5.44781">
        <ele>960</ele>
        <time>2020-07-16T18:38:43Z</time>
      </trkpt>
      <trkpt lat="45.17251" lon="5.44672">
        <ele>948</ele>
        <time>2020-07-16T18:40:33Z</time>
      </trkpt>
      <trkpt lat="45.17329" lon="5.44569">
        <ele>933</ele>
        <time>2020-07-16T18:42:55Z</time>
      </trkpt>
      <trkpt lat="45.17309" lon="5.44541">
        <ele>931</ele>
        <time>2020-07-16T18:43:32Z</time>
      </trkpt>
      <trkpt lat="45.17291" lon="5.44486">
        <ele>928</ele>
        <time>2020-07-16T18:44:29Z</time>
      </trkpt>
      <trkpt lat="45.17323" lon="5.44456">
        <ele>925</ele>
        <time>2020-07-16T18:45:21Z</time>
      </trkpt>
      <trkpt lat="45.173" lon="5.44369">
        <ele>917</ele>
        <time>2020-07-16T18:46:48Z</time>
      </trkpt>
      <trkpt lat="45.17284" lon="5.44275">
        <ele>911</ele>
        <time>2020-07-16T18:48:19Z</time>
      </trkpt>
      <trkpt lat="45.17315" lon="5.44097">
        <ele>878</ele>
        <time>2020-07-16T18:51:11Z</time>
      </trkpt>
      <trkpt lat="45.17371" lon="5.44003">
        <ele>857</ele>
        <time>2020-07-16T18:53:07Z</time>
      </trkpt>
      <trkpt lat="45.17398" lon="5.43925">
        <ele>847</ele>
        <time>2020-07-16T18:54:29Z</time>
      </trkpt>
      <trkpt lat="45.1734" lon="5.43851">
        <ele>854</ele>
        <time>2020-07-16T18:56:13Z</time>
      </trkpt>
      <trkpt lat="45.17344" lon="5.43779">
        <ele>837</ele>
        <time>2020-07-16T18:57:21Z</time>
      </trkpt>
      <trkpt lat="45.17359" lon="5.43709">
        <ele>812</ele>
        <time>2020-07-16T18:58:30Z</time>
      </trkpt>
      <trkpt lat="45.17395" lon="5.43649">
        <ele>784</ele>
        <time>2020-07-16T18:59:44Z</time>
      </trkpt>
      <trkpt lat="45.17353" lon="5.4359">
        <ele>782</ele>
        <time>2020-07-16T19:01:03Z</time>
      </trkpt>
      <trkpt lat="45.17429" lon="5.43635">
        <ele>771</ele>
        <time>2020-07-16T19:02:53Z</time>
      </trkpt>
      <trkpt lat="45.17498" lon="5.43707">
        <ele>763</ele>
        <time>2020-07-16T19:04:47Z</time>
      </trkpt>
      <trkpt lat="45.1754" lon="5.43757">
        <ele>762</ele>
        <time>2020-07-16T19:06:00Z</time>
      </trkpt>
      <trkpt lat="45.17536" lon="5.43721">
        <ele>754</ele>
        <time>2020-07-16T19:06:34Z</time>
      </trkpt>
      <trkpt lat="45.1751" lon="5.43665">
        <ele>749</ele>
        <time>2020-07-16T19:07:38Z</time>
      </trkpt>
      <trkpt lat="45.17465" lon="5.4362">
        <ele>756</ele>
        <time>2020-07-16T19:08:51Z</time>
      </trkpt>
      <trkpt lat="45.17446" lon="5.43559">
        <ele>749</ele>
        <time>2020-07-16T19:09:54Z</time>
      </trkpt>
      <trkpt lat="45.1738" lon="5.43494">
        <ele>752</ele>
        <time>2020-07-16T19:11:41Z</time>
      </trkpt>
      <trkpt lat="45.17348" lon="5.43498">
        <ele>762</ele>
        <time>2020-07-16T19:12:24Z</time>
      </trkpt>
      <trkpt lat="45.17314" lon="5.43584">
        <ele>783</ele>
        <time>2020-07-16T19:13:57Z</time>
      </trkpt>
      <trkpt lat="45.17274" lon="5.43633">
        <ele>795</ele>
        <time>2020-07-16T19:15:07Z</time>
      </trkpt>
      <trkpt lat="45.17175" lon="5.43669">
        <ele>802</ele>
        <time>2020-07-16T19:17:24Z</time>
      </trkpt>
      <trkpt lat="45.17162" lon="5.43662">
        <ele>802</ele>
        <time>2020-07-16T19:17:42Z</time>
      </trkpt>
      <trkpt lat="45.17197" lon="5.43608">
        <ele>790</ele>
        <time>2020-07-16T19:18:51Z</time>
      </trkpt>
      <trkpt lat="45.17212" lon="5.43516">
        <ele>775</ele>
        <time>2020-07-16T19:20:20Z</time>
      </trkpt>
      <trkpt lat="45.17211" lon="5.43407">
        <ele>761</ele>
        <time>2020-07-16T19:22:02Z</time>
      </trkpt>
      <trkpt lat="45.17202" lon="5.43319">
        <ele>751</ele>
        <time>2020-07-16T19:23:26Z</time>
      </trkpt>
      <trkpt lat="45.17184" lon="5.43178">
        <ele>708</ele>
        <time>2020-07-16T19:25:41Z</time>
      </trkpt>
      <trkpt lat="45.17241" lon="5.43218">
        <ele>694</ele>
        <time>2020-07-16T19:27:06Z</time>
      </trkpt>
      <trkpt lat="45.17189" lon="5.43111">
        <ele>669</ele>
        <time>2020-07-16T19:29:08Z</time>
      </trkpt>
      <trkpt lat="45.1715" lon="5.43025">
        <ele>655</ele>
        <time>2020-07-16T19:30:44Z</time>
      </trkpt>
      <trkpt lat="45.17104" lon="5.42886">
        <ele>636</ele>
        <time>2020-07-16T19:33:09Z</time>
      </trkpt>
      <trkpt lat="45.17081" lon="5.42763">
        <ele>615</ele>
        <time>2020-07-16T19:35:08Z</time>
      </trkpt>
      <trkpt lat="45.17064" lon="5.42612">
        <ele>591</ele>
        <time>2020-07-16T19:37:32Z</time>
      </trkpt>
      <trkpt lat="45.17031" lon="5.42545">
        <ele>591</ele>
        <time>2020-07-16T19:38:49Z</time>
      </trkpt>
      <trkpt lat="45.16992" lon="5.42446">
        <ele>577</ele>
        <time>2020-07-16T19:40:36Z</time>
      </trkpt>
      <trkpt lat="45.16963" lon="5.42336">
        <ele>561</ele>
        <time>2020-07-16T19:42:26Z</time>
      </trkpt>
      <trkpt lat="45.16973" lon="5.4224">
        <ele>540</ele>
        <time>2020-07-16T19:43:58Z</time>
      </trkpt>
      <trkpt lat="45.16954" lon="5.42148">
        <ele>529</ele>
        <time>2020-07-16T19:45:28Z</time>
      </trkpt>
      <trkpt lat="45.16931" lon="5.42034">
        <ele>498</ele>
        <time>2020-07-16T19:47:19Z</time>
      </trkpt>
      <trkpt lat="45.16918" lon="5.41912">
        <ele>460</ele>
        <time>2020-07-16T19:49:15Z</time>
      </trkpt>
      <trkpt lat="45.16871" lon="5.4182">
        <ele>422</ele>
        <time>2020-07-16T19:51:02Z</time>
      </trkpt>
      <trkpt lat="45.16947" lon="5.4187">
        <ele>441</ele>
        <time>2020-07-16T19:52:54Z</time>
      </trkpt>
      <trkpt lat="45.16993" lon="5.4191">
        <ele>439</ele>
        <time>2020-07-16T19:54:06Z</time>
      </trkpt>
      <trkpt lat="45.17001" lon="5.41838">
        <ele>412</ele>
        <time>2020-07-16T19:55:15Z</time>
      </trkpt>
      <trkpt lat="45.16974" lon="5.41756">
        <ele>381</ele>
        <time>2020-07-16T19:56:40Z</time>
      </trkpt>
      <trkpt lat="45.16923" lon="5.41673">
        <ele>363</ele>
        <time>2020-07-16T19:58:23Z</time>
      </trkpt>
      <trkpt lat="45.1688" lon="5.41594">
        <ele>332</ele>
        <time>2020-07-16T19:59:57Z</time>
      </trkpt>
      <trkpt lat="45.16884" lon="5.41549">
        <ele>317</ele>
        <time>2020-07-16T20:00:40Z</time>
      </trkpt>
      <trkpt lat="45.16918" lon="5.41543">
        <ele>314</ele>
        <time>2020-07-16T20:01:26Z</time>
      </trkpt>
      <trkpt lat="45.16898" lon="5.41484">
        <ele>297</ele>
        <time>2020-07-16T20:02:27Z</time>
      </trkpt>
      <trkpt lat="45.16891" lon="5.41487">
        <ele>298</ele>
        <time>2020-07-16T20:02:37Z</time>
      </trkpt>
      <trkpt lat="45.16901" lon="5.41456">
        <ele>294</ele>
        <time>2020-07-16T20:03:09Z</time>
      </trkpt>
      <trkpt lat="45.16916" lon="5.41443">
        <ele>292</ele>
        <time>2020-07-16T20:03:33Z</time>
      </trkpt>
      <trkpt lat="45.16935" lon="5.41405">
        <ele>287</ele>
        <time>2020-07-16T20:04:16Z</time>
      </trkpt>
      <trkpt lat="45.16924" lon="5.41396">
        <ele>287</ele>
        <time>2020-07-16T20:04:33Z</time>
      </trkpt>
      <trkpt lat="45.16938" lon="5.41345">
        <ele>284</ele>
        <time>2020-07-16T20:05:25Z</time>
      </trkpt>
      <trkpt lat="45.16952" lon="5.41343">
        <ele>284</ele>
        <time>2020-07-16T20:05:44Z</time>
      </trkpt>
      <trkpt lat="45.16981" lon="5.41336">
        <ele>283</ele>
        <time>2020-07-16T20:06:23Z</time>
      </trkpt>
      <trkpt lat="45.1702" lon="5.41324">
        <ele>281</ele>
        <time>2020-07-16T20:07:16Z</time>
      </trkpt>
      <trkpt lat="45.1705" lon="5.41327">
        <ele>280</ele>
        <time>2020-07-16T20:07:56Z</time>
      </trkpt>
      <trkpt lat="45.17076" lon="5.413">
        <ele>278</ele>
        <time>2020-07-16T20:08:39Z</time>
      </trkpt>
      <trkpt lat="45.17072" lon="5.41269">
        <ele>278</ele>
        <time>2020-07-16T20:09:09Z</time>
      </trkpt>
      <trkpt lat="45.17056" lon="5.41218">
        <ele>277</ele>
        <time>2020-07-16T20:10:02Z</time>
      </trkpt>
    </trkseg>
  </trk>
</gpx>